sensor_id;sensor_type;location;lat;lon;timestamp;P1;durP1;ratioP1;P2;durP2;ratioP2
56455;SDS011;42354;53.218;6.564;2023-02-17T00:01:12;50.55;;;20.92;;
56455;SDS011;42354;53.218;6.564;2023-02-17T00:03:41;52.30;;;21.67;;
56455;SDS011;42354;53.218;6.564;2023-02-17T00:06:07;52.00;;;20.90;;
56455;SDS011;42354;53.218;6.564;2023-02-17T00:08:34;57.78;;;22.90;;
56455;SDS011;42354;53.218;6.564;2023-02-17T00:10:59;56.47;;;22.30;;
56455;SDS011;42354;53.218;6.564;2023-02-17T00:13:25;56.75;;;24.25;;
56455;SDS011;42354;53.218;6.564;2023-02-17T00:15:51;54.22;;;24.70;;
56455;SDS011;42354;53.218;6.564;2023-02-17T00:18:16;65.28;;;24.75;;
56455;SDS011;42354;53.218;6.564;2023-02-17T00:20:42;59.05;;;25.83;;
56455;SDS011;42354;53.218;6.564;2023-02-17T00:23:07;64.43;;;24.88;;
56455;SDS011;42354;53.218;6.564;2023-02-17T00:25:33;65.57;;;26.73;;
56455;SDS011;42354;53.218;6.564;2023-02-17T00:27:59;62.95;;;26.35;;
56455;SDS011;42354;53.218;6.564;2023-02-17T00:30:25;71.00;;;26.75;;
56455;SDS011;42354;53.218;6.564;2023-02-17T00:32:50;69.00;;;27.33;;
56455;SDS011;42354;53.218;6.564;2023-02-17T00:35:15;68.25;;;27.80;;
56455;SDS011;42354;53.218;6.564;2023-02-17T00:37:42;64.55;;;27.48;;
56455;SDS011;42354;53.218;6.564;2023-02-17T00:40:09;67.97;;;29.45;;
56455;SDS011;42354;53.218;6.564;2023-02-17T00:42:36;68.85;;;27.42;;
56455;SDS011;42354;53.218;6.564;2023-02-17T00:45:03;73.10;;;29.70;;
56455;SDS011;42354;53.218;6.564;2023-02-17T00:47:30;76.53;;;30.02;;
56455;SDS011;42354;53.218;6.564;2023-02-17T00:49:56;70.60;;;30.70;;
56455;SDS011;42354;53.218;6.564;2023-02-17T00:52:23;83.47;;;32.75;;
56455;SDS011;42354;53.218;6.564;2023-02-17T00:54:48;88.55;;;37.03;;
56455;SDS011;42354;53.218;6.564;2023-02-17T00:57:15;85.28;;;33.75;;
56455;SDS011;42354;53.218;6.564;2023-02-17T00:59:40;92.35;;;35.72;;
56455;SDS011;42354;53.218;6.564;2023-02-17T01:02:06;87.47;;;35.22;;
56455;SDS011;42354;53.218;6.564;2023-02-17T01:04:32;85.65;;;35.47;;
56455;SDS011;42354;53.218;6.564;2023-02-17T01:06:57;98.28;;;38.45;;
56455;SDS011;42354;53.218;6.564;2023-02-17T01:09:23;92.63;;;37.80;;
56455;SDS011;42354;53.218;6.564;2023-02-17T01:11:49;99.05;;;35.55;;
56455;SDS011;42354;53.218;6.564;2023-02-17T01:14:14;83.22;;;36.05;;
56455;SDS011;42354;53.218;6.564;2023-02-17T01:16:43;101.05;;;37.65;;
56455;SDS011;42354;53.218;6.564;2023-02-17T01:19:12;95.90;;;37.92;;
56455;SDS011;42354;53.218;6.564;2023-02-17T01:21:39;99.15;;;38.85;;
56455;SDS011;42354;53.218;6.564;2023-02-17T01:24:05;95.95;;;37.08;;
56455;SDS011;42354;53.218;6.564;2023-02-17T01:26:33;94.97;;;37.28;;
56455;SDS011;42354;53.218;6.564;2023-02-17T01:29:00;88.70;;;37.50;;
56455;SDS011;42354;53.218;6.564;2023-02-17T01:31:29;89.47;;;38.97;;
56455;SDS011;42354;53.218;6.564;2023-02-17T01:33:55;89.85;;;41.45;;
56455;SDS011;42354;53.218;6.564;2023-02-17T01:36:22;95.65;;;38.65;;
56455;SDS011;42354;53.218;6.564;2023-02-17T01:38:47;94.63;;;39.38;;
56455;SDS011;42354;53.218;6.564;2023-02-17T01:41:15;85.78;;;36.80;;
56455;SDS011;42354;53.218;6.564;2023-02-17T01:43:41;83.63;;;37.25;;
56455;SDS011;42354;53.218;6.564;2023-02-17T01:46:30;85.95;;;36.33;;
56455;SDS011;42354;53.218;6.564;2023-02-17T01:48:57;81.45;;;35.03;;
56455;SDS011;42354;53.218;6.564;2023-02-17T01:51:25;78.03;;;34.58;;
56455;SDS011;42354;53.218;6.564;2023-02-17T01:53:56;85.43;;;33.97;;
56455;SDS011;42354;53.218;6.564;2023-02-17T01:56:26;77.10;;;33.53;;
56455;SDS011;42354;53.218;6.564;2023-02-17T01:58:54;77.63;;;33.55;;
56455;SDS011;42354;53.218;6.564;2023-02-17T02:01:25;75.95;;;33.13;;
56455;SDS011;42354;53.218;6.564;2023-02-17T02:03:51;70.70;;;33.22;;
56455;SDS011;42354;53.218;6.564;2023-02-17T02:06:19;76.82;;;32.80;;
56455;SDS011;42354;53.218;6.564;2023-02-17T02:09:10;80.72;;;33.63;;
56455;SDS011;42354;53.218;6.564;2023-02-17T02:11:49;83.55;;;32.60;;
56455;SDS011;42354;53.218;6.564;2023-02-17T02:14:15;74.72;;;34.35;;
56455;SDS011;42354;53.218;6.564;2023-02-17T02:16:46;75.40;;;34.70;;
56455;SDS011;42354;53.218;6.564;2023-02-17T02:19:34;77.63;;;35.10;;
56455;SDS011;42354;53.218;6.564;2023-02-17T02:33:24;80.40;;;34.75;;
56455;SDS011;42354;53.218;6.564;2023-02-17T02:36:10;82.07;;;33.65;;
56455;SDS011;42354;53.218;6.564;2023-02-17T02:41:18;72.93;;;34.67;;
56455;SDS011;42354;53.218;6.564;2023-02-17T02:43:47;77.30;;;32.83;;
56455;SDS011;42354;53.218;6.564;2023-02-17T02:46:13;72.25;;;33.50;;
56455;SDS011;42354;53.218;6.564;2023-02-17T02:48:39;73.55;;;33.40;;
56455;SDS011;42354;53.218;6.564;2023-02-17T02:56:18;71.80;;;33.85;;
56455;SDS011;42354;53.218;6.564;2023-02-17T03:04:51;76.07;;;34.47;;
56455;SDS011;42354;53.218;6.564;2023-02-17T03:07:27;77.75;;;33.85;;
56455;SDS011;42354;53.218;6.564;2023-02-17T03:09:55;82.60;;;34.40;;
56455;SDS011;42354;53.218;6.564;2023-02-17T03:12:23;66.45;;;32.20;;
56455;SDS011;42354;53.218;6.564;2023-02-17T03:14:51;78.47;;;34.25;;
56455;SDS011;42354;53.218;6.564;2023-02-17T03:17:19;64.70;;;32.00;;
56455;SDS011;42354;53.218;6.564;2023-02-17T03:19:45;71.03;;;32.65;;
56455;SDS011;42354;53.218;6.564;2023-02-17T03:24:47;72.70;;;33.58;;
56455;SDS011;42354;53.218;6.564;2023-02-17T03:27:13;77.07;;;34.70;;
56455;SDS011;42354;53.218;6.564;2023-02-17T03:29:38;70.03;;;34.63;;
56455;SDS011;42354;53.218;6.564;2023-02-17T03:32:06;77.55;;;34.80;;
56455;SDS011;42354;53.218;6.564;2023-02-17T03:34:33;79.15;;;35.60;;
56455;SDS011;42354;53.218;6.564;2023-02-17T03:37:00;90.57;;;35.88;;
56455;SDS011;42354;53.218;6.564;2023-02-17T03:39:25;80.70;;;34.55;;
56455;SDS011;42354;53.218;6.564;2023-02-17T03:41:51;74.00;;;36.97;;
56455;SDS011;42354;53.218;6.564;2023-02-17T03:44:17;80.05;;;35.35;;
56455;SDS011;42354;53.218;6.564;2023-02-17T03:46:43;75.75;;;40.63;;
56455;SDS011;42354;53.218;6.564;2023-02-17T03:49:09;75.72;;;34.70;;
56455;SDS011;42354;53.218;6.564;2023-02-17T03:51:34;73.30;;;36.60;;
56455;SDS011;42354;53.218;6.564;2023-02-17T03:53:59;70.25;;;31.90;;
56455;SDS011;42354;53.218;6.564;2023-02-17T03:56:25;71.40;;;32.95;;
56455;SDS011;42354;53.218;6.564;2023-02-17T03:58:50;72.38;;;32.42;;
56455;SDS011;42354;53.218;6.564;2023-02-17T04:01:16;69.30;;;32.15;;
56455;SDS011;42354;53.218;6.564;2023-02-17T04:03:41;71.95;;;34.83;;
56455;SDS011;42354;53.218;6.564;2023-02-17T04:06:07;77.13;;;31.95;;
56455;SDS011;42354;53.218;6.564;2023-02-17T04:08:32;64.95;;;31.17;;
56455;SDS011;42354;53.218;6.564;2023-02-17T04:10:59;79.18;;;32.53;;
56455;SDS011;42354;53.218;6.564;2023-02-17T04:13:26;73.97;;;32.95;;
56455;SDS011;42354;53.218;6.564;2023-02-17T04:15:51;72.25;;;32.15;;
56455;SDS011;42354;53.218;6.564;2023-02-17T04:18:18;76.53;;;33.80;;
56455;SDS011;42354;53.218;6.564;2023-02-17T04:20:46;73.47;;;33.10;;
56455;SDS011;42354;53.218;6.564;2023-02-17T04:23:12;72.97;;;33.83;;
56455;SDS011;42354;53.218;6.564;2023-02-17T04:25:38;69.85;;;36.42;;
56455;SDS011;42354;53.218;6.564;2023-02-17T04:28:04;69.90;;;33.03;;
56455;SDS011;42354;53.218;6.564;2023-02-17T04:30:30;72.47;;;32.92;;
56455;SDS011;42354;53.218;6.564;2023-02-17T04:32:56;65.35;;;30.98;;
56455;SDS011;42354;53.218;6.564;2023-02-17T04:35:22;68.93;;;29.15;;
56455;SDS011;42354;53.218;6.564;2023-02-17T04:37:48;72.88;;;29.90;;
56455;SDS011;42354;53.218;6.564;2023-02-17T04:40:13;71.63;;;30.23;;
56455;SDS011;42354;53.218;6.564;2023-02-17T04:42:39;70.75;;;28.73;;
56455;SDS011;42354;53.218;6.564;2023-02-17T04:45:05;63.40;;;27.92;;
56455;SDS011;42354;53.218;6.564;2023-02-17T04:47:31;70.57;;;29.10;;
56455;SDS011;42354;53.218;6.564;2023-02-17T04:49:57;68.93;;;30.67;;
56455;SDS011;42354;53.218;6.564;2023-02-17T04:52:22;73.72;;;29.55;;
56455;SDS011;42354;53.218;6.564;2023-02-17T04:54:47;68.50;;;28.83;;
56455;SDS011;42354;53.218;6.564;2023-02-17T04:57:13;73.75;;;28.80;;
56455;SDS011;42354;53.218;6.564;2023-02-17T04:59:38;63.15;;;26.15;;
56455;SDS011;42354;53.218;6.564;2023-02-17T05:02:03;68.82;;;27.60;;
56455;SDS011;42354;53.218;6.564;2023-02-17T05:04:30;63.10;;;27.85;;
56455;SDS011;42354;53.218;6.564;2023-02-17T05:06:55;68.72;;;27.77;;
56455;SDS011;42354;53.218;6.564;2023-02-17T05:09:21;66.03;;;26.25;;
56455;SDS011;42354;53.218;6.564;2023-02-17T05:11:46;64.28;;;27.10;;
56455;SDS011;42354;53.218;6.564;2023-02-17T05:14:12;65.25;;;27.13;;
56455;SDS011;42354;53.218;6.564;2023-02-17T05:16:37;67.78;;;27.10;;
56455;SDS011;42354;53.218;6.564;2023-02-17T05:19:02;71.40;;;29.00;;
56455;SDS011;42354;53.218;6.564;2023-02-17T05:21:28;70.07;;;30.58;;
56455;SDS011;42354;53.218;6.564;2023-02-17T05:23:54;76.10;;;29.73;;
56455;SDS011;42354;53.218;6.564;2023-02-17T05:26:19;62.20;;;28.20;;
56455;SDS011;42354;53.218;6.564;2023-02-17T05:28:44;68.93;;;26.33;;
56455;SDS011;42354;53.218;6.564;2023-02-17T05:31:10;70.07;;;27.00;;
56455;SDS011;42354;53.218;6.564;2023-02-17T05:33:36;66.60;;;26.77;;
56455;SDS011;42354;53.218;6.564;2023-02-17T05:36:02;62.30;;;24.10;;
56455;SDS011;42354;53.218;6.564;2023-02-17T05:38:29;59.47;;;25.85;;
56455;SDS011;42354;53.218;6.564;2023-02-17T05:40:54;61.90;;;25.48;;
56455;SDS011;42354;53.218;6.564;2023-02-17T05:43:19;63.60;;;25.60;;
56455;SDS011;42354;53.218;6.564;2023-02-17T05:45:45;57.13;;;25.88;;
56455;SDS011;42354;53.218;6.564;2023-02-17T05:48:10;68.18;;;26.30;;
56455;SDS011;42354;53.218;6.564;2023-02-17T05:50:37;68.82;;;26.70;;
56455;SDS011;42354;53.218;6.564;2023-02-17T05:53:04;62.97;;;24.50;;
56455;SDS011;42354;53.218;6.564;2023-02-17T05:55:29;61.45;;;25.33;;
56455;SDS011;42354;53.218;6.564;2023-02-17T05:57:54;60.97;;;25.23;;
56455;SDS011;42354;53.218;6.564;2023-02-17T06:00:20;63.53;;;26.70;;
56455;SDS011;42354;53.218;6.564;2023-02-17T06:02:45;63.50;;;30.08;;
56455;SDS011;42354;53.218;6.564;2023-02-17T06:05:11;68.95;;;27.17;;
56455;SDS011;42354;53.218;6.564;2023-02-17T06:07:36;81.20;;;29.38;;
56455;SDS011;42354;53.218;6.564;2023-02-17T06:10:01;77.65;;;30.85;;
56455;SDS011;42354;53.218;6.564;2023-02-17T06:12:27;76.70;;;35.92;;
56455;SDS011;42354;53.218;6.564;2023-02-17T06:14:53;76.75;;;34.20;;
56455;SDS011;42354;53.218;6.564;2023-02-17T06:17:18;76.15;;;33.33;;
56455;SDS011;42354;53.218;6.564;2023-02-17T06:19:44;75.57;;;31.00;;
56455;SDS011;42354;53.218;6.564;2023-02-17T06:22:09;83.20;;;31.95;;
56455;SDS011;42354;53.218;6.564;2023-02-17T06:24:35;90.18;;;30.85;;
56455;SDS011;42354;53.218;6.564;2023-02-17T06:27:01;72.70;;;31.98;;
56455;SDS011;42354;53.218;6.564;2023-02-17T06:29:26;81.53;;;32.47;;
56455;SDS011;42354;53.218;6.564;2023-02-17T06:31:52;75.68;;;31.17;;
56455;SDS011;42354;53.218;6.564;2023-02-17T06:34:18;79.78;;;31.85;;
56455;SDS011;42354;53.218;6.564;2023-02-17T06:36:43;74.13;;;32.17;;
56455;SDS011;42354;53.218;6.564;2023-02-17T06:39:10;77.00;;;34.15;;
56455;SDS011;42354;53.218;6.564;2023-02-17T06:41:35;75.57;;;30.13;;
56455;SDS011;42354;53.218;6.564;2023-02-17T06:44:01;88.68;;;36.95;;
56455;SDS011;42354;53.218;6.564;2023-02-17T06:46:26;79.43;;;32.85;;
56455;SDS011;42354;53.218;6.564;2023-02-17T06:48:52;81.82;;;35.35;;
56455;SDS011;42354;53.218;6.564;2023-02-17T06:51:18;75.75;;;31.85;;
56455;SDS011;42354;53.218;6.564;2023-02-17T06:53:43;84.00;;;34.40;;
56455;SDS011;42354;53.218;6.564;2023-02-17T06:56:10;72.82;;;32.65;;
56455;SDS011;42354;53.218;6.564;2023-02-17T06:58:36;87.28;;;33.70;;
56455;SDS011;42354;53.218;6.564;2023-02-17T07:01:02;79.68;;;31.75;;
56455;SDS011;42354;53.218;6.564;2023-02-17T07:03:29;82.50;;;31.95;;
56455;SDS011;42354;53.218;6.564;2023-02-17T07:05:57;77.75;;;32.03;;
56455;SDS011;42354;53.218;6.564;2023-02-17T07:08:24;80.85;;;33.13;;
56455;SDS011;42354;53.218;6.564;2023-02-17T07:10:50;87.53;;;33.40;;
56455;SDS011;42354;53.218;6.564;2023-02-17T07:13:15;90.30;;;33.47;;
56455;SDS011;42354;53.218;6.564;2023-02-17T07:15:41;81.97;;;33.45;;
56455;SDS011;42354;53.218;6.564;2023-02-17T07:18:06;86.25;;;32.50;;
56455;SDS011;42354;53.218;6.564;2023-02-17T07:20:32;81.10;;;33.13;;
56455;SDS011;42354;53.218;6.564;2023-02-17T07:22:58;84.90;;;31.80;;
56455;SDS011;42354;53.218;6.564;2023-02-17T07:25:24;77.20;;;30.65;;
56455;SDS011;42354;53.218;6.564;2023-02-17T07:27:50;84.10;;;29.40;;
56455;SDS011;42354;53.218;6.564;2023-02-17T07:30:15;86.00;;;31.17;;
56455;SDS011;42354;53.218;6.564;2023-02-17T07:32:42;92.93;;;30.50;;
56455;SDS011;42354;53.218;6.564;2023-02-17T07:35:09;90.93;;;33.08;;
56455;SDS011;42354;53.218;6.564;2023-02-17T07:37:35;92.13;;;29.60;;
56455;SDS011;42354;53.218;6.564;2023-02-17T07:40:00;85.65;;;33.50;;
56455;SDS011;42354;53.218;6.564;2023-02-17T07:42:26;84.40;;;33.47;;
56455;SDS011;42354;53.218;6.564;2023-02-17T07:44:52;86.25;;;30.98;;
56455;SDS011;42354;53.218;6.564;2023-02-17T07:47:18;88.70;;;31.15;;
56455;SDS011;42354;53.218;6.564;2023-02-17T07:49:44;88.20;;;32.55;;
56455;SDS011;42354;53.218;6.564;2023-02-17T07:52:09;84.90;;;30.08;;
56455;SDS011;42354;53.218;6.564;2023-02-17T07:54:36;82.90;;;30.75;;
56455;SDS011;42354;53.218;6.564;2023-02-17T07:57:01;94.10;;;32.58;;
56455;SDS011;42354;53.218;6.564;2023-02-17T07:59:27;79.00;;;29.50;;
56455;SDS011;42354;53.218;6.564;2023-02-17T08:01:52;74.30;;;32.55;;
56455;SDS011;42354;53.218;6.564;2023-02-17T08:04:18;83.05;;;27.77;;
56455;SDS011;42354;53.218;6.564;2023-02-17T08:06:43;80.60;;;28.98;;
56455;SDS011;42354;53.218;6.564;2023-02-17T08:09:09;69.57;;;26.77;;
56455;SDS011;42354;53.218;6.564;2023-02-17T08:11:54;81.60;;;30.02;;
56455;SDS011;42354;53.218;6.564;2023-02-17T08:14:37;76.57;;;28.80;;
56455;SDS011;42354;53.218;6.564;2023-02-17T08:17:03;76.72;;;27.02;;
56455;SDS011;42354;53.218;6.564;2023-02-17T08:19:30;73.45;;;27.63;;
56455;SDS011;42354;53.218;6.564;2023-02-17T08:21:55;65.47;;;25.85;;
56455;SDS011;42354;53.218;6.564;2023-02-17T08:24:21;73.32;;;27.27;;
56455;SDS011;42354;53.218;6.564;2023-02-17T08:26:47;71.70;;;28.73;;
56455;SDS011;42354;53.218;6.564;2023-02-17T08:29:13;71.57;;;28.58;;
56455;SDS011;42354;53.218;6.564;2023-02-17T08:31:39;63.08;;;24.77;;
56455;SDS011;42354;53.218;6.564;2023-02-17T08:34:05;69.50;;;27.13;;
56455;SDS011;42354;53.218;6.564;2023-02-17T08:36:32;61.58;;;24.77;;
56455;SDS011;42354;53.218;6.564;2023-02-17T08:38:59;59.70;;;27.17;;
56455;SDS011;42354;53.218;6.564;2023-02-17T08:41:26;60.08;;;22.38;;
56455;SDS011;42354;53.218;6.564;2023-02-17T08:43:54;61.38;;;22.25;;
56455;SDS011;42354;53.218;6.564;2023-02-17T08:46:20;56.60;;;22.50;;
56455;SDS011;42354;53.218;6.564;2023-02-17T08:48:46;48.97;;;21.17;;
56455;SDS011;42354;53.218;6.564;2023-02-17T08:51:12;50.15;;;22.50;;
56455;SDS011;42354;53.218;6.564;2023-02-17T08:53:51;51.30;;;22.52;;
56455;SDS011;42354;53.218;6.564;2023-02-17T08:58:47;46.45;;;19.77;;
56455;SDS011;42354;53.218;6.564;2023-02-17T09:01:13;47.00;;;19.45;;
56455;SDS011;42354;53.218;6.564;2023-02-17T09:03:39;45.63;;;17.83;;
56455;SDS011;42354;53.218;6.564;2023-02-17T09:06:06;46.47;;;17.77;;
56455;SDS011;42354;53.218;6.564;2023-02-17T09:08:33;46.05;;;18.67;;
56455;SDS011;42354;53.218;6.564;2023-02-17T09:10:58;47.55;;;19.75;;
56455;SDS011;42354;53.218;6.564;2023-02-17T09:13:24;40.25;;;15.95;;
56455;SDS011;42354;53.218;6.564;2023-02-17T09:15:51;44.50;;;16.80;;
56455;SDS011;42354;53.218;6.564;2023-02-17T09:18:18;43.50;;;19.35;;
56455;SDS011;42354;53.218;6.564;2023-02-17T09:20:45;45.85;;;17.98;;
56455;SDS011;42354;53.218;6.564;2023-02-17T09:23:10;38.45;;;15.50;;
56455;SDS011;42354;53.218;6.564;2023-02-17T09:25:37;40.33;;;16.40;;
56455;SDS011;42354;53.218;6.564;2023-02-17T09:28:03;35.03;;;15.85;;
56455;SDS011;42354;53.218;6.564;2023-02-17T09:30:29;39.03;;;14.18;;
56455;SDS011;42354;53.218;6.564;2023-02-17T09:32:55;38.83;;;16.42;;
56455;SDS011;42354;53.218;6.564;2023-02-17T09:35:21;42.70;;;16.80;;
56455;SDS011;42354;53.218;6.564;2023-02-17T09:37:46;33.13;;;14.65;;
56455;SDS011;42354;53.218;6.564;2023-02-17T09:40:17;32.70;;;15.50;;
56455;SDS011;42354;53.218;6.564;2023-02-17T09:42:47;32.70;;;15.20;;
56455;SDS011;42354;53.218;6.564;2023-02-17T09:45:16;34.33;;;15.32;;
56455;SDS011;42354;53.218;6.564;2023-02-17T09:47:47;36.33;;;14.60;;
56455;SDS011;42354;53.218;6.564;2023-02-17T09:50:17;30.88;;;14.38;;
56455;SDS011;42354;53.218;6.564;2023-02-17T09:55:24;31.30;;;10.98;;
56455;SDS011;42354;53.218;6.564;2023-02-17T09:57:55;24.30;;;12.80;;
56455;SDS011;42354;53.218;6.564;2023-02-17T10:00:31;24.67;;;11.38;;
56455;SDS011;42354;53.218;6.564;2023-02-17T10:03:07;23.42;;;9.55;;
56455;SDS011;42354;53.218;6.564;2023-02-17T10:05:37;25.00;;;10.25;;
56455;SDS011;42354;53.218;6.564;2023-02-17T10:08:11;24.35;;;10.43;;
56455;SDS011;42354;53.218;6.564;2023-02-17T10:10:43;26.88;;;11.25;;
56455;SDS011;42354;53.218;6.564;2023-02-17T10:15:43;23.75;;;10.25;;
56455;SDS011;42354;53.218;6.564;2023-02-17T10:21:10;19.20;;;9.32;;
56455;SDS011;42354;53.218;6.564;2023-02-17T10:23:43;15.68;;;7.75;;
56455;SDS011;42354;53.218;6.564;2023-02-17T10:29:21;18.75;;;7.90;;
56455;SDS011;42354;53.218;6.564;2023-02-17T10:32:06;21.58;;;9.10;;
56455;SDS011;42354;53.218;6.564;2023-02-17T10:34:56;21.65;;;6.90;;
56455;SDS011;42354;53.218;6.564;2023-02-17T10:37:46;26.05;;;7.40;;
56455;SDS011;42354;53.218;6.564;2023-02-17T10:40:18;20.92;;;6.45;;
56455;SDS011;42354;53.218;6.564;2023-02-17T10:42:46;19.63;;;6.43;;
56455;SDS011;42354;53.218;6.564;2023-02-17T10:48:14;17.10;;;6.70;;
56455;SDS011;42354;53.218;6.564;2023-02-17T10:50:44;18.85;;;9.27;;
56455;SDS011;42354;53.218;6.564;2023-02-17T10:53:14;16.90;;;6.47;;
56455;SDS011;42354;53.218;6.564;2023-02-17T11:01:10;17.58;;;6.22;;
56455;SDS011;42354;53.218;6.564;2023-02-17T11:03:36;20.63;;;6.68;;
56455;SDS011;42354;53.218;6.564;2023-02-17T11:06:27;17.85;;;5.68;;
56455;SDS011;42354;53.218;6.564;2023-02-17T11:08:57;17.20;;;6.40;;
56455;SDS011;42354;53.218;6.564;2023-02-17T11:11:30;19.50;;;5.35;;
56455;SDS011;42354;53.218;6.564;2023-02-17T11:16:44;19.70;;;5.93;;
56455;SDS011;42354;53.218;6.564;2023-02-17T11:22:32;21.90;;;5.80;;
56455;SDS011;42354;53.218;6.564;2023-02-17T11:25:04;18.40;;;6.43;;
56455;SDS011;42354;53.218;6.564;2023-02-17T11:27:58;20.17;;;4.68;;
56455;SDS011;42354;53.218;6.564;2023-02-17T11:30:26;17.95;;;4.60;;
56455;SDS011;42354;53.218;6.564;2023-02-17T11:32:53;20.92;;;6.30;;
56455;SDS011;42354;53.218;6.564;2023-02-17T11:35:26;21.55;;;4.65;;
56455;SDS011;42354;53.218;6.564;2023-02-17T11:38:10;17.17;;;4.93;;
56455;SDS011;42354;53.218;6.564;2023-02-17T11:40:38;14.38;;;3.83;;
56455;SDS011;42354;53.218;6.564;2023-02-17T11:43:04;15.73;;;4.60;;
56455;SDS011;42354;53.218;6.564;2023-02-17T11:45:41;16.65;;;5.28;;
56455;SDS011;42354;53.218;6.564;2023-02-17T12:00:17;16.55;;;4.03;;
56455;SDS011;42354;53.218;6.564;2023-02-17T12:05:35;15.35;;;4.43;;
56455;SDS011;42354;53.218;6.564;2023-02-17T12:22:14;11.35;;;3.10;;
56455;SDS011;42354;53.218;6.564;2023-02-17T12:25:01;17.65;;;4.50;;
56455;SDS011;42354;53.218;6.564;2023-02-17T12:33:01;15.82;;;3.83;;
56455;SDS011;42354;53.218;6.564;2023-02-17T12:35:54;15.73;;;4.03;;
56455;SDS011;42354;53.218;6.564;2023-02-17T12:38:26;15.85;;;3.42;;
56455;SDS011;42354;53.218;6.564;2023-02-17T12:40:57;16.83;;;3.83;;
56455;SDS011;42354;53.218;6.564;2023-02-17T12:43:38;14.57;;;3.97;;
56455;SDS011;42354;53.218;6.564;2023-02-17T12:46:09;15.63;;;4.32;;
56455;SDS011;42354;53.218;6.564;2023-02-17T12:48:49;11.10;;;3.45;;
56455;SDS011;42354;53.218;6.564;2023-02-17T12:51:29;12.75;;;3.33;;
56455;SDS011;42354;53.218;6.564;2023-02-17T12:54:04;12.63;;;3.50;;
56455;SDS011;42354;53.218;6.564;2023-02-17T12:56:42;13.70;;;2.83;;
56455;SDS011;42354;53.218;6.564;2023-02-17T12:59:15;15.88;;;3.20;;
56455;SDS011;42354;53.218;6.564;2023-02-17T13:02:24;13.27;;;3.90;;
56455;SDS011;42354;53.218;6.564;2023-02-17T13:04:44;12.68;;;2.83;;
56455;SDS011;42354;53.218;6.564;2023-02-17T13:09:50;17.15;;;3.85;;
56455;SDS011;42354;53.218;6.564;2023-02-17T13:14:47;11.05;;;3.15;;
56455;SDS011;42354;53.218;6.564;2023-02-17T13:17:23;17.52;;;3.97;;
56455;SDS011;42354;53.218;6.564;2023-02-17T13:22:35;16.02;;;3.28;;
56455;SDS011;42354;53.218;6.564;2023-02-17T13:25:05;10.32;;;2.92;;
56455;SDS011;42354;53.218;6.564;2023-02-17T13:27:35;15.10;;;3.33;;
56455;SDS011;42354;53.218;6.564;2023-02-17T13:32:46;13.57;;;4.25;;
56455;SDS011;42354;53.218;6.564;2023-02-17T13:37:53;13.88;;;3.95;;
56455;SDS011;42354;53.218;6.564;2023-02-17T13:50:46;15.40;;;3.40;;
56455;SDS011;42354;53.218;6.564;2023-02-17T13:53:23;20.40;;;4.18;;
56455;SDS011;42354;53.218;6.564;2023-02-17T13:58:39;21.08;;;3.92;;
56455;SDS011;42354;53.218;6.564;2023-02-17T14:01:07;13.20;;;2.78;;
56455;SDS011;42354;53.218;6.564;2023-02-17T14:06:03;15.80;;;3.05;;
56455;SDS011;42354;53.218;6.564;2023-02-17T14:08:33;18.40;;;3.58;;
56455;SDS011;42354;53.218;6.564;2023-02-17T14:13:37;19.58;;;4.18;;
56455;SDS011;42354;53.218;6.564;2023-02-17T14:16:05;19.35;;;3.28;;
56455;SDS011;42354;53.218;6.564;2023-02-17T14:18:36;18.05;;;3.53;;
56455;SDS011;42354;53.218;6.564;2023-02-17T14:21:08;13.30;;;2.78;;
56455;SDS011;42354;53.218;6.564;2023-02-17T14:23:48;12.02;;;2.90;;
56455;SDS011;42354;53.218;6.564;2023-02-17T14:29:02;18.63;;;2.92;;
56455;SDS011;42354;53.218;6.564;2023-02-17T14:34:06;12.45;;;2.45;;
56455;SDS011;42354;53.218;6.564;2023-02-17T14:36:39;15.57;;;3.45;;
56455;SDS011;42354;53.218;6.564;2023-02-17T14:39:06;17.35;;;4.15;;
56455;SDS011;42354;53.218;6.564;2023-02-17T14:41:33;17.35;;;3.78;;
56455;SDS011;42354;53.218;6.564;2023-02-17T14:43:58;13.38;;;3.13;;
56455;SDS011;42354;53.218;6.564;2023-02-17T14:46:25;27.35;;;3.40;;
56455;SDS011;42354;53.218;6.564;2023-02-17T14:48:53;15.18;;;2.95;;
56455;SDS011;42354;53.218;6.564;2023-02-17T14:51:20;17.88;;;3.78;;
56455;SDS011;42354;53.218;6.564;2023-02-17T14:53:48;16.15;;;3.95;;
56455;SDS011;42354;53.218;6.564;2023-02-17T14:58:43;22.02;;;3.90;;
56455;SDS011;42354;53.218;6.564;2023-02-17T15:01:12;16.48;;;3.25;;
56455;SDS011;42354;53.218;6.564;2023-02-17T15:03:38;18.92;;;3.85;;
56455;SDS011;42354;53.218;6.564;2023-02-17T15:06:08;19.92;;;4.13;;
56455;SDS011;42354;53.218;6.564;2023-02-17T15:08:37;17.17;;;4.20;;
56455;SDS011;42354;53.218;6.564;2023-02-17T15:11:02;18.85;;;3.65;;
56455;SDS011;42354;53.218;6.564;2023-02-17T15:13:29;22.08;;;3.13;;
56455;SDS011;42354;53.218;6.564;2023-02-17T15:15:56;20.13;;;4.03;;
56455;SDS011;42354;53.218;6.564;2023-02-17T15:18:21;17.90;;;4.90;;
56455;SDS011;42354;53.218;6.564;2023-02-17T15:20:48;20.42;;;4.80;;
56455;SDS011;42354;53.218;6.564;2023-02-17T15:23:16;22.20;;;4.20;;
56455;SDS011;42354;53.218;6.564;2023-02-17T15:25:43;18.33;;;5.10;;
56455;SDS011;42354;53.218;6.564;2023-02-17T15:28:11;20.90;;;3.97;;
56455;SDS011;42354;53.218;6.564;2023-02-17T15:30:37;23.00;;;3.95;;
56455;SDS011;42354;53.218;6.564;2023-02-17T15:33:03;20.05;;;3.20;;
56455;SDS011;42354;53.218;6.564;2023-02-17T15:35:30;17.00;;;4.00;;
56455;SDS011;42354;53.218;6.564;2023-02-17T15:37:55;12.20;;;3.40;;
56455;SDS011;42354;53.218;6.564;2023-02-17T15:40:24;16.67;;;2.97;;
56455;SDS011;42354;53.218;6.564;2023-02-17T15:42:54;13.30;;;3.65;;
56455;SDS011;42354;53.218;6.564;2023-02-17T15:45:21;19.98;;;2.97;;
56455;SDS011;42354;53.218;6.564;2023-02-17T15:47:48;17.50;;;3.97;;
56455;SDS011;42354;53.218;6.564;2023-02-17T15:50:16;20.35;;;3.75;;
56455;SDS011;42354;53.218;6.564;2023-02-17T15:52:50;15.60;;;2.20;;
56455;SDS011;42354;53.218;6.564;2023-02-17T15:55:16;14.07;;;3.10;;
56455;SDS011;42354;53.218;6.564;2023-02-17T15:57:49;17.65;;;3.83;;
56455;SDS011;42354;53.218;6.564;2023-02-17T16:02:41;15.18;;;3.83;;
56455;SDS011;42354;53.218;6.564;2023-02-17T16:05:09;15.63;;;2.78;;
56455;SDS011;42354;53.218;6.564;2023-02-17T16:07:35;16.92;;;3.25;;
56455;SDS011;42354;53.218;6.564;2023-02-17T16:10:01;22.60;;;3.88;;
56455;SDS011;42354;53.218;6.564;2023-02-17T16:12:27;14.52;;;3.58;;
56455;SDS011;42354;53.218;6.564;2023-02-17T16:14:53;20.27;;;3.22;;
56455;SDS011;42354;53.218;6.564;2023-02-17T16:17:19;21.73;;;3.88;;
56455;SDS011;42354;53.218;6.564;2023-02-17T16:19:44;20.05;;;3.55;;
56455;SDS011;42354;53.218;6.564;2023-02-17T16:22:10;20.30;;;3.38;;
56455;SDS011;42354;53.218;6.564;2023-02-17T16:24:35;24.17;;;3.55;;
56455;SDS011;42354;53.218;6.564;2023-02-17T16:27:00;16.55;;;2.92;;
56455;SDS011;42354;53.218;6.564;2023-02-17T16:29:26;23.48;;;3.83;;
56455;SDS011;42354;53.218;6.564;2023-02-17T16:31:51;19.40;;;4.18;;
56455;SDS011;42354;53.218;6.564;2023-02-17T16:34:18;20.40;;;2.90;;
56455;SDS011;42354;53.218;6.564;2023-02-17T16:36:46;19.35;;;3.83;;
56455;SDS011;42354;53.218;6.564;2023-02-17T16:39:16;21.40;;;3.05;;
56455;SDS011;42354;53.218;6.564;2023-02-17T16:41:44;20.83;;;4.82;;
56455;SDS011;42354;53.218;6.564;2023-02-17T16:44:13;17.88;;;3.35;;